createdAt,value
2019-05-10T00:00:47.116Z,97288.00
2019-05-10T00:02:09.611Z,97288.30
2019-05-10T00:03:30.833Z,97284.29
2019-05-10T00:04:51.810Z,97290.09
2019-05-10T00:06:13.301Z,97289.48
2019-05-10T00:07:33.699Z,97290.23
2019-05-10T00:08:45.426Z,97290.02
2019-05-10T00:09:47.422Z,97291.43
2019-05-10T00:10:52.172Z,97285.48
2019-05-10T00:12:02.910Z,97289.34
2019-05-10T00:13:07.727Z,97282.34
2019-05-10T00:14:28.078Z,97290.34
2019-05-10T00:15:31.618Z,97289.48
2019-05-10T00:16:35.742Z,97281.48
2019-05-10T00:17:38.689Z,97290.20
2019-05-10T00:18:40.546Z,97288.58
2019-05-10T00:19:43.263Z,97288.87
2019-05-10T00:20:46.139Z,97291.53
2019-05-10T00:21:49.025Z,97288.58
2019-05-10T00:22:51.457Z,97291.47
2019-05-10T00:23:54.195Z,97290.95
2019-05-10T00:25:04.550Z,97286.20
2019-05-10T00:26:02.721Z,97290.20
2019-05-10T00:27:05.970Z,97289.91
2019-05-10T00:28:08.823Z,97293.63
2019-05-10T00:29:11.580Z,97295.47
2019-05-10T00:30:14.933Z,97289.55
2019-05-10T00:31:18.482Z,97292.22
2019-05-10T00:32:21.051Z,97292.50
2019-05-10T00:33:23.760Z,97289.55
2019-05-10T00:34:26.544Z,97292.44
2019-05-10T00:35:29.472Z,97299.39
2019-05-10T00:36:32.937Z,97293.77
2019-05-10T00:37:34.999Z,97291.39
2019-05-10T00:38:38.054Z,97289.48
2019-05-10T00:39:40.727Z,97289.26
2019-05-10T00:40:43.244Z,97291.85
2019-05-10T00:41:46.055Z,97292.89
2019-05-10T00:42:48.693Z,97293.69
2019-05-10T00:43:51.625Z,97294.73
2019-05-10T00:44:54.456Z,97290.73
2019-05-10T00:45:56.397Z,97289.48
2019-05-10T00:46:59.301Z,97290.52
2019-05-10T00:48:02.431Z,97286.88
2019-05-10T00:49:04.323Z,97288.14
2019-05-10T00:50:07.575Z,97283.09
2019-05-10T00:51:10.386Z,97285.77
2019-05-10T00:52:13.542Z,97287.39
2019-05-10T00:53:16.390Z,97291.09
2019-05-10T00:54:18.283Z,97288.97
2019-05-10T00:55:21.460Z,97286.02
2019-05-10T00:56:24.498Z,97288.44
2019-05-10T00:57:27.069Z,97287.85
2019-05-10T00:58:29.790Z,97284.60
2019-05-10T00:59:32.816Z,97286.30
2019-05-10T01:00:36.119Z,97295.10
2019-05-10T01:01:39.239Z,97283.70
2019-05-10T01:02:42.068Z,97289.77
2019-05-10T01:03:44.194Z,97285.77
2019-05-10T01:04:46.934Z,97291.09
2019-05-10T01:05:49.946Z,97292.44
2019-05-10T01:06:52.346Z,97288.06
2019-05-10T01:07:54.926Z,97293.19
2019-05-10T01:08:57.980Z,97290.23
2019-05-10T01:09:59.672Z,97288.61
2019-05-10T01:11:03.746Z,97287.27
2019-05-10T01:12:06.644Z,97292.89
2019-05-10T01:13:09.146Z,97290.45
2019-05-10T01:14:12.134Z,97291.39
2019-05-10T01:15:15.118Z,97291.47
2019-05-10T01:16:18.897Z,97292.44
2019-05-10T01:17:21.792Z,97288.67
2019-05-10T01:18:24.847Z,97289.79
2019-05-10T01:19:27.362Z,97293.10
2019-05-10T01:20:30.272Z,97291.77
2019-05-10T01:21:32.859Z,97290.75
2019-05-10T01:22:35.018Z,97291.48
2019-05-10T01:23:38.325Z,97287.27
2019-05-10T01:24:40.552Z,97289.17
2019-05-10T01:25:43.136Z,97290.30
2019-05-10T01:26:45.726Z,97289.17
2019-05-10T01:27:48.833Z,97288.13
2019-05-10T01:28:52.641Z,97286.08
2019-05-10T01:29:55.834Z,97294.08
2019-05-10T01:30:57.592Z,97289.86
2019-05-10T01:32:00.559Z,97292.45
2019-05-10T01:33:03.316Z,97292.75
2019-05-10T01:34:06.313Z,97290.80
2019-05-10T01:35:11.065Z,97292.75
2019-05-10T01:36:13.781Z,97295.34
2019-05-10T01:37:16.539Z,97292.67
2019-05-10T01:38:19.584Z,97294.08
2019-05-10T01:39:22.858Z,97299.12
2019-05-10T01:40:25.378Z,97293.25
2019-05-10T01:41:28.206Z,97293.03
2019-05-10T01:42:31.278Z,97290.08
2019-05-10T01:43:34.241Z,97296.75
2019-05-10T01:44:37.068Z,97294.66
2019-05-10T01:45:39.536Z,97295.84
2019-05-10T01:46:42.690Z,97290.51
2019-05-10T01:47:45.522Z,97290.51
2019-05-10T01:48:47.572Z,97291.27
2019-05-10T01:49:49.440Z,97296.96
2019-05-10T01:50:52.241Z,97287.39
2019-05-10T01:51:54.645Z,97287.86
2019-05-10T01:52:57.718Z,97289.69
2019-05-10T01:54:00.240Z,97289.04
2019-05-10T01:55:05.976Z,97294.66
2019-05-10T01:56:08.364Z,97291.12
2019-05-10T01:57:11.046Z,97291.84
2019-05-10T01:58:12.760Z,97293.42
2019-05-10T01:59:15.430Z,97292.89
2019-05-10T02:00:19.028Z,97289.93
2019-05-10T02:01:21.772Z,97288.81
2019-05-10T02:02:24.770Z,97293.34
2019-05-10T02:03:26.456Z,97291.69
2019-05-10T02:04:28.254Z,97288.81
2019-05-10T02:05:33.251Z,97287.27
2019-05-10T02:06:35.840Z,97284.89
2019-05-10T02:07:38.575Z,97291.05
2019-05-10T02:08:44.042Z,97297.17
2019-05-10T02:09:48.227Z,97283.12
2019-05-10T02:10:50.862Z,97286.59
2019-05-10T02:11:53.475Z,97283.92
2019-05-10T02:12:56.034Z,97288.68
2019-05-10T02:13:59.502Z,97284.89
2019-05-10T02:15:06.190Z,97286.02
2019-05-10T02:16:08.297Z,97290.05
2019-05-10T02:17:11.447Z,97287.34
2019-05-10T02:18:14.108Z,97291.09
2019-05-10T02:19:16.627Z,97287.48
2019-05-10T02:20:19.814Z,97285.03
2019-05-10T02:21:22.840Z,97293.94
2019-05-10T02:22:25.941Z,97293.62
2019-05-10T02:23:28.655Z,97292.68
2019-05-10T02:24:30.334Z,97291.64
2019-05-10T02:25:33.223Z,97295.92
2019-05-10T02:26:36.237Z,97296.36
2019-05-10T02:27:38.995Z,97294.30
2019-05-10T02:28:40.857Z,97296.97
2019-05-10T02:29:43.449Z,97297.69
2019-05-10T02:30:46.350Z,97298.23
2019-05-10T02:31:49.070Z,97296.00
2019-05-10T02:32:54.007Z,97298.38
2019-05-10T02:33:55.852Z,97300.73
2019-05-10T02:34:58.886Z,97296.51
2019-05-10T02:36:01.581Z,97296.51
2019-05-10T02:37:03.627Z,97297.05
2019-05-10T02:38:05.999Z,97293.34
2019-05-10T02:39:08.088Z,97291.09
2019-05-10T02:40:11.656Z,97298.67
2019-05-10T02:41:14.427Z,97299.17
2019-05-10T02:42:17.372Z,97297.91
2019-05-10T02:43:19.669Z,97292.80
2019-05-10T02:44:22.706Z,97299.72
2019-05-10T02:45:27.684Z,97300.44
2019-05-10T02:46:30.466Z,97303.39
2019-05-10T02:47:32.770Z,97301.19
2019-05-10T02:48:35.904Z,97302.02
2019-05-10T02:49:38.669Z,97301.41
2019-05-10T02:50:41.104Z,97304.90
2019-05-10T02:51:44.484Z,97300.82
2019-05-10T02:52:47.793Z,97303.03
2019-05-10T02:53:50.752Z,97301.62
2019-05-10T02:54:54.039Z,97301.62
2019-05-10T02:55:58.076Z,97300.53
2019-05-10T02:57:02.301Z,97302.73
2019-05-10T02:58:06.778Z,97301.62
2019-05-10T02:59:10.810Z,97300.36
2019-05-10T03:00:14.483Z,97296.36
2019-05-10T03:01:21.682Z,97301.62
2019-05-10T03:02:25.643Z,97301.11
2019-05-10T03:03:30.689Z,97296.89
2019-05-10T03:04:35.044Z,97307.27
2019-05-10T03:05:41.572Z,97305.41
2019-05-10T03:06:44.624Z,97305.11
2019-05-10T03:07:46.834Z,97298.38
2019-05-10T03:08:51.007Z,97297.11
2019-05-10T03:09:53.065Z,97304.75
2019-05-10T03:10:57.352Z,97301.62
2019-05-10T03:12:22.681Z,97302.08
2019-05-10T03:13:29.665Z,97305.79
2019-05-10T03:14:39.640Z,97303.20
2019-05-10T03:15:45.723Z,97308.20
2019-05-10T03:16:49.576Z,97302.30
2019-05-10T03:17:54.998Z,97304.45
2019-05-10T03:18:57.981Z,97301.25
2019-05-10T03:20:01.040Z,97312.13
2019-05-10T03:21:08.142Z,97305.17
2019-05-10T03:22:15.134Z,97304.75
2019-05-10T03:23:20.848Z,97305.33
2019-05-10T03:24:27.760Z,97310.02
2019-05-10T03:25:28.969Z,97304.82
2019-05-10T03:26:49.729Z,97303.27
2019-05-10T03:27:38.440Z,97305.62
2019-05-10T03:28:42.715Z,97305.11
2019-05-10T03:29:45.770Z,97304.61
2019-05-10T03:30:48.239Z,97304.36
2019-05-10T03:31:51.147Z,97305.69
2019-05-10T03:32:53.765Z,97300.68
2019-05-10T03:33:57.736Z,97303.92
2019-05-10T03:35:00.469Z,97309.48
2019-05-10T03:36:03.567Z,97306.23
2019-05-10T03:37:05.785Z,97304.36
2019-05-10T03:38:08.397Z,97306.81
2019-05-10T03:39:10.480Z,97303.64
2019-05-10T03:40:14.007Z,97309.69
2019-05-10T03:41:16.674Z,97302.02
2019-05-10T03:42:19.730Z,97304.14
2019-05-10T03:43:24.254Z,97306.30
2019-05-10T03:44:27.191Z,97305.48
2019-05-10T03:45:29.743Z,97304.14
2019-05-10T03:46:32.043Z,97302.30
2019-05-10T03:47:35.654Z,97310.81
2019-05-10T03:48:37.738Z,97311.10
2019-05-10T03:49:40.427Z,97313.27
2019-05-10T03:50:42.995Z,97309.77
2019-05-10T03:51:46.044Z,97308.22
2019-05-10T03:52:51.914Z,97312.30
2019-05-10T03:53:54.017Z,97315.25
2019-05-10T03:54:56.743Z,97317.13
2019-05-10T03:56:00.546Z,97318.13
2019-05-10T03:57:13.300Z,97322.46
2019-05-10T03:58:08.954Z,97317.84
2019-05-10T03:59:12.222Z,97321.27
2019-05-10T04:00:15.551Z,97320.14
2019-05-10T04:01:18.184Z,97324.98
2019-05-10T04:02:20.923Z,97322.30
2019-05-10T04:03:23.493Z,97321.77
2019-05-10T04:04:25.854Z,97320.90
2019-05-10T04:05:28.296Z,97321.84
2019-05-10T04:06:31.230Z,97320.88
2019-05-10T04:07:34.178Z,97326.38
2019-05-10T04:08:38.077Z,97324.00
2019-05-10T04:09:40.058Z,97324.13
2019-05-10T04:10:42.962Z,97326.80
2019-05-10T04:11:45.550Z,97327.13
2019-05-10T04:12:47.407Z,97328.89
2019-05-10T04:13:50.362Z,97329.17
2019-05-10T04:14:52.982Z,97335.84
2019-05-10T04:15:54.838Z,97330.76
2019-05-10T04:16:57.412Z,97329.47
2019-05-10T04:18:00.151Z,97336.88
2019-05-10T04:19:02.973Z,97334.00
2019-05-10T04:20:07.901Z,97337.09
2019-05-10T04:21:10.275Z,97340.88
2019-05-10T04:22:13.188Z,97342.51
2019-05-10T04:23:16.095Z,97338.51
2019-05-10T04:24:19.009Z,97345.47
2019-05-10T04:25:21.898Z,97334.51
2019-05-10T04:26:24.368Z,97336.13
2019-05-10T04:27:32.128Z,97336.13
2019-05-10T04:28:32.412Z,97338.80
2019-05-10T04:29:35.215Z,97345.72
2019-05-10T04:30:36.967Z,97341.17
2019-05-10T04:31:40.917Z,97338.59
2019-05-10T04:32:43.876Z,97343.92
2019-05-10T04:33:45.514Z,97339.48
2019-05-10T04:34:48.101Z,97343.78
2019-05-10T04:35:50.531Z,97338.95
2019-05-10T04:36:53.275Z,97341.33
2019-05-10T04:37:56.453Z,97340.08
2019-05-10T04:38:59.629Z,97335.03
2019-05-10T04:40:03.082Z,97344.82
2019-05-10T04:41:05.993Z,97338.38
2019-05-10T04:42:09.234Z,97341.03
2019-05-10T04:43:11.000Z,97337.47
2019-05-10T04:44:13.760Z,97345.25
2019-05-10T04:45:16.777Z,97339.26
2019-05-10T04:46:19.511Z,97344.13
2019-05-10T04:47:22.666Z,97346.97
2019-05-10T04:48:24.962Z,97344.30
2019-05-10T04:49:27.990Z,97342.43
2019-05-10T04:50:30.696Z,97343.26
2019-05-10T04:51:33.459Z,97351.34
2019-05-10T04:52:36.478Z,97341.92
2019-05-10T04:53:39.374Z,97340.30
2019-05-10T04:54:42.126Z,97343.55
2019-05-10T04:55:44.948Z,97339.84
2019-05-10T04:56:48.099Z,97342.80
2019-05-10T04:57:51.426Z,97348.88
2019-05-10T04:58:54.963Z,97351.13
2019-05-10T04:59:57.457Z,97349.47
2019-05-10T05:01:00.647Z,97357.04
2019-05-10T05:02:05.618Z,97351.63
2019-05-10T05:03:08.162Z,97353.04
2019-05-10T05:04:11.225Z,97349.63
2019-05-10T05:05:14.249Z,97350.66
2019-05-10T05:06:17.621Z,97356.00
2019-05-10T05:07:20.276Z,97347.28
2019-05-10T05:08:23.060Z,97352.29
2019-05-10T05:09:25.742Z,97348.07
2019-05-10T05:10:28.813Z,97354.95
2019-05-10T05:11:31.384Z,97351.64
2019-05-10T05:12:34.053Z,97352.69
2019-05-10T05:13:36.395Z,97345.05
2019-05-10T05:14:39.426Z,97353.05
2019-05-10T05:15:41.860Z,97352.44
2019-05-10T05:16:44.382Z,97353.05
2019-05-10T05:17:47.093Z,97355.87
2019-05-10T05:18:49.425Z,97359.81
2019-05-10T05:19:52.044Z,97356.17
2019-05-10T05:20:54.794Z,97355.74
2019-05-10T05:21:57.317Z,97361.66
2019-05-10T05:23:00.002Z,97363.07
2019-05-10T05:24:02.881Z,97365.38
2019-05-10T05:25:06.827Z,97363.00
2019-05-10T05:26:09.663Z,97364.77
2019-05-10T05:27:12.467Z,97365.36
2019-05-10T05:28:18.507Z,97371.30
2019-05-10T05:29:20.030Z,97373.66
2019-05-10T05:30:23.113Z,97369.80
2019-05-10T05:31:25.977Z,97375.78
2019-05-10T05:32:28.274Z,97368.67
2019-05-10T05:33:30.958Z,97375.12
2019-05-10T05:34:33.672Z,97378.30
2019-05-10T05:35:36.370Z,97388.30
2019-05-10T05:36:40.404Z,97376.70
2019-05-10T05:37:44.615Z,97370.95
2019-05-10T05:38:49.537Z,97374.20
2019-05-10T05:39:50.905Z,97377.73
2019-05-10T05:40:53.847Z,97374.63
2019-05-10T05:41:57.119Z,97378.48
2019-05-10T05:43:02.644Z,97382.49
2019-05-10T05:44:05.122Z,97382.02
2019-05-10T05:45:08.388Z,97381.22
2019-05-10T05:46:14.357Z,97383.07
2019-05-10T05:47:16.489Z,97378.55
2019-05-10T05:48:21.424Z,97382.02
2019-05-10T05:49:25.724Z,97380.53
2019-05-10T05:50:28.450Z,97381.30
2019-05-10T05:51:31.472Z,97381.87
2019-05-10T05:52:35.855Z,97381.94
2019-05-10T05:53:42.194Z,97382.80
2019-05-10T05:54:42.642Z,97386.08
2019-05-10T05:55:45.402Z,97386.94
2019-05-10T05:56:50.598Z,97385.86
2019-05-10T05:57:51.785Z,97387.92
2019-05-10T05:58:56.105Z,97392.00
2019-05-10T06:00:04.254Z,97390.15
2019-05-10T06:01:04.931Z,97389.61
2019-05-10T06:02:09.604Z,97387.55
2019-05-10T06:03:11.565Z,97388.34
2019-05-10T06:04:14.205Z,97392.70
2019-05-10T06:05:32.788Z,97392.77
2019-05-10T06:06:23.622Z,97390.41
2019-05-10T06:07:31.047Z,97393.95
2019-05-10T06:08:31.970Z,97392.55
2019-05-10T06:09:37.816Z,97391.05
2019-05-10T06:10:43.451Z,97394.02
2019-05-10T06:11:44.498Z,97395.86
2019-05-10T06:12:50.552Z,97396.84
2019-05-10T06:13:50.890Z,97400.34
2019-05-10T06:14:53.672Z,97391.75
2019-05-10T06:15:59.459Z,97397.73
2019-05-10T06:17:01.551Z,97401.52
2019-05-10T06:18:09.646Z,97398.85
2019-05-10T06:19:08.262Z,97403.44
2019-05-10T06:20:11.313Z,97400.54
2019-05-10T06:21:17.942Z,97399.55
2019-05-10T06:22:17.788Z,97400.13
2019-05-10T06:23:20.539Z,97397.02
2019-05-10T06:24:22.725Z,97401.81
2019-05-10T06:25:39.793Z,97401.02
2019-05-10T06:26:30.968Z,97400.55
2019-05-10T06:27:35.413Z,97405.16
2019-05-10T06:28:57.435Z,97406.24
2019-05-10T06:29:43.368Z,97402.55
2019-05-10T06:30:45.678Z,97402.84
2019-05-10T06:31:48.619Z,97398.00
2019-05-10T06:32:53.283Z,97401.28
2019-05-10T06:33:55.551Z,97401.37
2019-05-10T06:34:58.424Z,97402.17
2019-05-10T06:36:00.838Z,97401.11
2019-05-10T06:37:03.879Z,97399.33
2019-05-10T06:38:06.446Z,97408.98
2019-05-10T06:39:10.616Z,97406.59
2019-05-10T06:40:12.603Z,97408.53
2019-05-10T06:41:16.758Z,97405.31
2019-05-10T06:42:19.435Z,97410.44
2019-05-10T06:43:22.567Z,97406.14
2019-05-10T06:44:31.209Z,97409.61
2019-05-10T06:45:30.611Z,97413.40
2019-05-10T06:46:33.336Z,97414.29
2019-05-10T06:47:36.504Z,97413.56
2019-05-10T06:48:39.345Z,97414.77
2019-05-10T06:49:50.364Z,97417.41
2019-05-10T06:50:48.684Z,97420.31
2019-05-10T06:51:52.460Z,97412.48
2019-05-10T06:53:00.490Z,97415.66
2019-05-10T06:53:59.853Z,97418.34
2019-05-10T06:55:04.076Z,97418.97
2019-05-10T06:56:07.028Z,97414.64
2019-05-10T06:57:11.307Z,97420.88
2019-05-10T06:58:14.011Z,97425.94
2019-05-10T06:59:19.410Z,97427.85
2019-05-10T07:00:21.029Z,97422.51
2019-05-10T07:01:23.004Z,97423.62
2019-05-10T07:02:28.333Z,97429.03
2019-05-10T07:03:30.447Z,97430.66
2019-05-10T07:04:37.887Z,97430.44
2019-05-10T07:05:38.845Z,97425.91
2019-05-10T07:06:41.408Z,97423.39
2019-05-10T07:07:45.439Z,97422.66
2019-05-10T07:08:51.586Z,97428.78
2019-05-10T07:10:06.595Z,97431.94
2019-05-10T07:10:56.897Z,97430.75
2019-05-10T07:11:59.904Z,97437.01
2019-05-10T07:13:03.532Z,97433.38
2019-05-10T07:14:06.565Z,97435.38
2019-05-10T07:15:10.416Z,97439.72
2019-05-10T07:16:14.995Z,97438.84
2019-05-10T07:17:18.576Z,97437.28
2019-05-10T07:18:22.799Z,97436.51
2019-05-10T07:19:28.760Z,97435.09
2019-05-10T07:20:30.966Z,97440.37
2019-05-10T07:21:39.073Z,97439.97
2019-05-10T07:22:38.002Z,97440.48
2019-05-10T07:23:45.175Z,97441.70
2019-05-10T07:24:45.783Z,97434.65
2019-05-10T07:25:49.184Z,97442.38
2019-05-10T07:26:56.674Z,97445.78
2019-05-10T07:27:58.305Z,97440.87
2019-05-10T07:29:01.379Z,97440.98
2019-05-10T07:30:05.040Z,97440.87
2019-05-10T07:31:06.877Z,97443.21
2019-05-10T07:32:09.667Z,97445.94
2019-05-10T07:33:11.362Z,97447.43
2019-05-10T07:34:15.588Z,97442.71
2019-05-10T07:35:17.899Z,97442.65
2019-05-10T07:36:27.012Z,97440.15
2019-05-10T07:37:27.056Z,97452.36
2019-05-10T07:38:32.776Z,97449.66
2019-05-10T07:39:35.215Z,97449.08
2019-05-10T07:40:37.934Z,97448.19
2019-05-10T07:41:41.133Z,97458.14
2019-05-10T07:42:45.478Z,97450.29
2019-05-10T07:43:49.705Z,97455.22
2019-05-10T07:44:53.220Z,97458.77
2019-05-10T07:45:58.668Z,97450.28
2019-05-10T07:47:01.297Z,97456.42
2019-05-10T07:48:08.014Z,97461.52
2019-05-10T07:49:09.879Z,97457.19
2019-05-10T07:50:12.744Z,97455.77
2019-05-10T07:51:16.126Z,97462.52
2019-05-10T07:52:17.948Z,97461.83
2019-05-10T07:53:22.798Z,97467.52
2019-05-10T07:54:25.594Z,97466.23
2019-05-10T07:55:30.127Z,97464.52
2019-05-10T07:56:33.146Z,97474.36
2019-05-10T07:57:35.918Z,97466.91
2019-05-10T07:58:43.312Z,97469.38
2019-05-10T07:59:50.725Z,97469.45
2019-05-10T08:00:48.284Z,97469.50
2019-05-10T08:01:50.072Z,97471.85
2019-05-10T08:03:00.833Z,97472.59
2019-05-10T08:03:59.222Z,97474.05
2019-05-10T08:05:05.036Z,97474.27
2019-05-10T08:06:08.514Z,97473.66
2019-05-10T08:07:11.074Z,97472.80
2019-05-10T08:08:14.246Z,97469.45
2019-05-10T08:09:19.389Z,97479.47
2019-05-10T08:10:23.609Z,97477.67
2019-05-10T08:11:28.590Z,97477.19
2019-05-10T08:12:35.305Z,97479.23
2019-05-10T08:13:35.302Z,97476.01
2019-05-10T08:14:39.411Z,97476.28
2019-05-10T08:15:43.053Z,97480.77
2019-05-10T08:16:51.905Z,97475.67
2019-05-10T08:17:51.654Z,97480.20
2019-05-10T08:18:55.673Z,97477.11
2019-05-10T08:19:59.748Z,97477.88
2019-05-10T08:21:17.995Z,97478.30
2019-05-10T08:22:09.229Z,97478.35
2019-05-10T08:23:13.228Z,97481.78
2019-05-10T08:24:16.796Z,97479.09
2019-05-10T08:25:22.974Z,97481.84
2019-05-10T08:26:28.042Z,97480.80
2019-05-10T08:27:32.435Z,97482.02
2019-05-10T08:28:39.822Z,97476.20
2019-05-10T08:29:42.923Z,97488.59
2019-05-10T08:30:55.489Z,97494.91
2019-05-10T08:31:55.290Z,97483.95
2019-05-10T08:33:09.314Z,97488.41
2019-05-10T08:34:08.620Z,97486.63
2019-05-10T08:35:16.978Z,97488.31
2019-05-10T08:36:16.314Z,97491.61
2019-05-10T08:37:30.354Z,97491.95
2019-05-10T08:38:26.023Z,97495.61
2019-05-10T08:39:34.823Z,97489.75
2019-05-10T08:40:38.047Z,97497.56
2019-05-10T08:41:43.272Z,97497.00
2019-05-10T08:42:54.176Z,97498.63
2019-05-10T08:43:52.667Z,97501.31
2019-05-10T08:45:03.628Z,97495.92
2019-05-10T08:46:02.453Z,97497.61
2019-05-10T08:47:07.668Z,97499.44
2019-05-10T08:48:12.212Z,97496.98
2019-05-10T08:49:14.379Z,97495.94
2019-05-10T08:50:42.213Z,97496.20
2019-05-10T08:51:22.875Z,97494.09
2019-05-10T08:52:30.934Z,97496.10
2019-05-10T08:53:32.918Z,97492.86
2019-05-10T08:54:35.231Z,97493.09
2019-05-10T08:55:37.923Z,97496.41
2019-05-10T08:56:43.949Z,97496.83
2019-05-10T08:57:49.057Z,97496.21
2019-05-10T08:58:50.079Z,97495.45
2019-05-10T08:59:54.248Z,97492.47
2019-05-10T09:01:15.417Z,97491.70
2019-05-10T09:02:03.035Z,97492.50
2019-05-10T09:03:10.242Z,97497.34
2019-05-10T09:04:13.803Z,97500.28
2019-05-10T09:05:21.056Z,97492.48
2019-05-10T09:06:21.901Z,97497.01
2019-05-10T09:07:24.682Z,97501.14
2019-05-10T09:08:31.360Z,97493.20
2019-05-10T09:09:33.700Z,97498.27
2019-05-10T09:10:35.970Z,97499.49
2019-05-10T09:11:38.779Z,97497.84
2019-05-10T09:12:50.623Z,97502.59
2019-05-10T09:13:46.453Z,97504.33
2019-05-10T09:14:49.151Z,97510.91
2019-05-10T09:15:56.813Z,97509.80
2019-05-10T09:17:01.683Z,97510.55
2019-05-10T09:18:07.238Z,97511.13
2019-05-10T09:19:12.320Z,97505.33
2019-05-10T09:20:20.801Z,97508.86
2019-05-10T09:21:22.768Z,97506.00
2019-05-10T09:22:32.328Z,97504.42
2019-05-10T09:23:32.520Z,97507.63
2019-05-10T09:24:35.005Z,97509.59
2019-05-10T09:25:39.148Z,97506.66
2019-05-10T09:26:46.961Z,97514.18
2019-05-10T09:27:49.598Z,97508.91
2019-05-10T09:28:57.524Z,97509.45
2019-05-10T09:29:58.739Z,97503.60
2019-05-10T09:31:16.515Z,97507.37
2019-05-10T09:32:06.647Z,97504.61
2019-05-10T09:33:11.425Z,97506.67
2019-05-10T09:34:16.006Z,97512.19
2019-05-10T09:35:19.055Z,97515.97
2019-05-10T09:36:30.820Z,97514.04
2019-05-10T09:37:27.572Z,97510.82
2019-05-10T09:38:34.937Z,97514.40
2019-05-10T09:39:35.815Z,97514.34
2019-05-10T09:40:42.584Z,97516.08
2019-05-10T09:41:44.860Z,97514.52
2019-05-10T09:42:46.595Z,97514.31
2019-05-10T09:43:53.749Z,97517.93
2019-05-10T09:44:56.826Z,97515.54
2019-05-10T09:45:59.059Z,97514.86
2019-05-10T09:47:04.047Z,97514.57
2019-05-10T09:48:07.942Z,97519.83
2019-05-10T09:49:15.538Z,97520.42
2019-05-10T09:50:16.533Z,97513.73
2019-05-10T09:51:23.941Z,97515.06
2019-05-10T09:52:23.302Z,97524.94
2019-05-10T09:53:30.344Z,97518.45
2019-05-10T09:54:33.827Z,97514.67
2019-05-10T09:55:37.004Z,97521.23
2019-05-10T09:56:44.342Z,97522.25
2019-05-10T09:57:44.546Z,97533.14
2019-05-10T09:58:48.417Z,97538.36
2019-05-10T09:59:52.745Z,97532.88
2019-05-10T10:01:09.488Z,97537.63
2019-05-10T10:01:59.562Z,97532.16
2019-05-10T10:03:03.720Z,97535.69
2019-05-10T10:04:06.092Z,97535.44
2019-05-10T10:05:09.392Z,97536.95
2019-05-10T10:06:13.065Z,97526.08
2019-05-10T10:07:19.052Z,97527.84
2019-05-10T10:08:23.008Z,97529.63
2019-05-10T10:09:33.835Z,97527.27
2019-05-10T10:10:32.449Z,97528.90
2019-05-10T10:11:36.127Z,97530.16
2019-05-10T10:12:38.731Z,97523.42
2019-05-10T10:13:43.995Z,97521.66
2019-05-10T10:14:49.743Z,97526.52
2019-05-10T10:15:54.781Z,97522.54
2019-05-10T10:17:02.595Z,97520.61
2019-05-10T10:18:02.628Z,97528.97
2019-05-10T10:19:10.232Z,97529.60
2019-05-10T10:20:13.057Z,97523.44
2019-05-10T10:21:27.289Z,97519.91
2019-05-10T10:22:22.880Z,97526.26
2019-05-10T10:23:33.094Z,97523.97
2019-05-10T10:24:32.277Z,97526.27
2019-05-10T10:25:39.860Z,97520.47
2019-05-10T10:26:39.891Z,97527.28
2019-05-10T10:27:42.243Z,97525.89
2019-05-10T10:28:49.771Z,97529.83
2019-05-10T10:29:49.405Z,97534.02
2019-05-10T10:30:58.912Z,97530.95
2019-05-10T10:31:59.018Z,97535.40
2019-05-10T10:33:05.828Z,97532.60
2019-05-10T10:34:07.769Z,97532.23
2019-05-10T10:35:13.351Z,97531.45
2019-05-10T10:36:17.874Z,97528.89
2019-05-10T10:37:27.816Z,97528.12
2019-05-10T10:38:27.795Z,97526.67
2019-05-10T10:39:32.298Z,97529.88
2019-05-10T10:40:35.417Z,97532.59
2019-05-10T10:41:39.286Z,97531.80
2019-05-10T10:42:41.588Z,97530.59
2019-05-10T10:43:44.804Z,97532.20
2019-05-10T10:44:48.392Z,97532.91
2019-05-10T10:45:52.400Z,97530.20
2019-05-10T10:46:58.275Z,97526.00
2019-05-10T10:48:02.543Z,97531.69
2019-05-10T10:49:05.641Z,97534.41
2019-05-10T10:50:13.400Z,97529.44
2019-05-10T10:51:18.020Z,97530.66
2019-05-10T10:52:22.066Z,97532.98
2019-05-10T10:53:24.901Z,97531.17
2019-05-10T10:54:35.755Z,97535.41
2019-05-10T10:55:36.861Z,97526.77
2019-05-10T10:56:37.522Z,97529.72
2019-05-10T10:57:40.394Z,97525.53
2019-05-10T10:58:42.766Z,97525.17
2019-05-10T10:59:48.215Z,97525.45
2019-05-10T11:00:54.183Z,97526.35
2019-05-10T11:02:27.252Z,97526.09
2019-05-10T11:03:04.827Z,97532.42
2019-05-10T11:04:08.201Z,97537.19
2019-05-10T11:05:11.307Z,97533.53
2019-05-10T11:06:15.435Z,97533.70
2019-05-10T11:07:17.980Z,97540.39
2019-05-10T11:08:21.208Z,97531.39
2019-05-10T11:09:25.425Z,97534.16
2019-05-10T11:10:32.862Z,97535.64
2019-05-10T11:11:44.360Z,97526.91
2019-05-10T11:12:41.390Z,97537.26
2019-05-10T11:13:45.797Z,97538.16
2019-05-10T11:14:48.787Z,97535.00
2019-05-10T11:15:51.674Z,97534.97
2019-05-10T11:16:57.010Z,97537.70
2019-05-10T11:18:00.494Z,97532.84
2019-05-10T11:19:03.674Z,97530.82
2019-05-10T11:20:11.564Z,97541.24
2019-05-10T11:21:14.233Z,97532.34
2019-05-10T11:22:18.160Z,97541.75
2019-05-10T11:23:24.621Z,97535.51
2019-05-10T11:24:25.645Z,97534.23
2019-05-10T11:25:28.102Z,97527.61
2019-05-10T11:26:34.941Z,97532.28
2019-05-10T11:27:36.137Z,97533.48
2019-05-10T11:28:43.879Z,97531.95
2019-05-10T11:29:44.220Z,97535.95
2019-05-10T11:30:47.129Z,97538.29
2019-05-10T11:32:11.337Z,97540.20
2019-05-10T11:32:55.335Z,97542.13
2019-05-10T11:34:00.937Z,97540.16
2019-05-10T11:35:05.528Z,97538.28
2019-05-10T11:36:11.562Z,97539.16
2019-05-10T11:37:16.171Z,97538.95
2019-05-10T11:38:18.340Z,97533.94
2019-05-10T11:39:26.458Z,97532.78
2019-05-10T11:40:30.642Z,97528.39
2019-05-10T11:41:31.431Z,97532.58
2019-05-10T11:42:37.616Z,97535.84
2019-05-10T11:43:38.669Z,97530.20
2019-05-10T11:44:50.082Z,97530.98
2019-05-10T11:45:45.996Z,97531.52
2019-05-10T11:46:50.632Z,97539.94
2019-05-10T11:47:58.727Z,97536.80
2019-05-10T11:48:57.893Z,97536.95
2019-05-10T11:50:06.222Z,97539.57
2019-05-10T11:51:10.680Z,97533.58
2019-05-10T11:52:13.113Z,97536.82
2019-05-10T11:53:17.275Z,97544.61
2019-05-10T11:54:21.538Z,97539.58
2019-05-10T11:55:24.519Z,97532.81
2019-05-10T11:56:28.412Z,97534.67
2019-05-10T11:57:32.856Z,97538.25
2019-05-10T11:58:37.543Z,97536.02
2019-05-10T11:59:41.300Z,97537.78
2019-05-10T12:00:43.297Z,97531.19
2019-05-10T12:01:54.783Z,97531.56
2019-05-10T12:03:12.645Z,97525.80
2019-05-10T12:03:56.818Z,97537.23
2019-05-10T12:05:01.257Z,97532.02
2019-05-10T12:06:07.644Z,97532.96
2019-05-10T12:07:12.828Z,97530.18
2019-05-10T12:08:14.066Z,97535.60
2019-05-10T12:09:16.336Z,97527.66
2019-05-10T12:10:21.938Z,97527.53
2019-05-10T12:11:33.236Z,97523.42
2019-05-10T12:12:50.315Z,97537.20
2019-05-10T12:13:35.751Z,97535.40
2019-05-10T12:14:43.685Z,97533.27
2019-05-10T12:15:44.765Z,97530.84
2019-05-10T12:16:47.753Z,97537.41
2019-05-10T12:17:58.678Z,97543.39
2019-05-10T12:19:10.586Z,97543.47
2019-05-10T12:20:02.454Z,97534.56
2019-05-10T12:22:15.761Z,97540.44
2019-05-10T12:23:22.614Z,97531.18
2019-05-10T12:25:42.528Z,97528.58
2019-05-10T12:26:13.466Z,97538.39
2019-05-10T12:26:59.208Z,97532.09
2019-05-10T12:27:45.066Z,97531.34
2019-05-10T12:28:42.714Z,97529.95
2019-05-10T12:29:46.613Z,97533.37
2019-05-10T12:30:51.210Z,97532.20